createdAt,value
2023-05-14T00:01:42.325Z,10.45
2023-05-14T00:04:09.536Z,10.45
2023-05-14T00:06:36.689Z,11.13
2023-05-14T00:09:04.270Z,10.60
2023-05-14T00:11:31.323Z,10.65
2023-05-14T00:13:58.436Z,10.18
2023-05-14T00:16:25.711Z,9.68
2023-05-14T00:18:53.021Z,9.63
2023-05-14T00:21:20.206Z,9.75
2023-05-14T00:23:47.532Z,10.65
2023-05-14T00:26:14.653Z,10.60
2023-05-14T00:28:44.498Z,10.52
2023-05-14T00:31:11.563Z,10.52
2023-05-14T00:33:38.794Z,9.88
2023-05-14T00:36:06.102Z,10.57
2023-05-14T00:38:33.217Z,8.95
2023-05-14T00:41:00.308Z,9.88
2023-05-14T00:43:27.461Z,9.38
2023-05-14T00:45:55.807Z,9.13
2023-05-14T00:48:23.540Z,9.23
2023-05-14T00:50:51.326Z,9.55
2023-05-14T00:53:21.644Z,9.07
2023-05-14T00:55:49.933Z,9.63
2023-05-14T00:58:18.439Z,9.40
2023-05-14T01:00:45.936Z,9.55
2023-05-14T01:03:13.086Z,9.20
2023-05-14T01:05:44.377Z,9.50
2023-05-14T01:08:28.500Z,9.27
2023-05-14T01:10:59.393Z,9.95
2023-05-14T01:13:26.428Z,9.55
2023-05-14T01:15:54.295Z,9.23
2023-05-14T01:18:22.201Z,9.23
2023-05-14T01:20:52.558Z,9.27
2023-05-14T01:23:19.663Z,10.10
2023-05-14T01:25:46.779Z,10.02
2023-05-14T01:28:18.023Z,9.50
2023-05-14T01:30:58.655Z,9.18
2023-05-14T01:33:28.281Z,10.13
2023-05-14T01:35:55.954Z,9.40
2023-05-14T01:38:24.153Z,9.63
2023-05-14T01:40:51.598Z,9.20
2023-05-14T01:43:19.698Z,9.18
2023-05-14T01:45:47.134Z,9.38
2023-05-14T01:48:14.282Z,9.38
2023-05-14T01:50:41.405Z,10.07
2023-05-14T01:53:08.471Z,9.63
2023-05-14T01:55:35.617Z,9.23
2023-05-14T01:58:02.745Z,9.48
2023-05-14T02:00:29.872Z,9.70
2023-05-14T02:02:58.102Z,10.23
2023-05-14T02:05:25.323Z,9.82
2023-05-14T02:07:54.614Z,9.05
2023-05-14T02:10:22.088Z,9.55
2023-05-14T02:12:50.180Z,9.30
2023-05-14T02:15:17.333Z,9.38
2023-05-14T02:17:44.476Z,10.20
2023-05-14T02:20:11.876Z,10.02
2023-05-14T02:22:42.023Z,9.30
2023-05-14T02:25:09.511Z,10.25
2023-05-14T02:27:36.659Z,9.20
2023-05-14T02:30:04.531Z,10.07
2023-05-14T02:32:31.720Z,9.88
2023-05-14T02:34:59.083Z,9.90
2023-05-14T02:37:26.207Z,10.18
2023-05-14T02:39:53.422Z,10.73
2023-05-14T02:42:23.060Z,10.13
2023-05-14T02:44:52.206Z,9.43
2023-05-14T02:47:19.520Z,9.30
2023-05-14T02:49:46.699Z,10.05
2023-05-14T02:52:13.858Z,9.15
2023-05-14T02:54:40.948Z,9.35
2023-05-14T02:57:07.992Z,9.35
2023-05-14T02:59:36.126Z,9.65
2023-05-14T03:02:03.748Z,9.90
2023-05-14T03:04:31.207Z,9.13
2023-05-14T03:06:58.335Z,9.45
2023-05-14T03:09:25.476Z,9.10
2023-05-14T03:11:52.586Z,9.73
2023-05-14T03:14:19.654Z,9.23
2023-05-14T03:16:46.837Z,9.80
2023-05-14T03:19:14.087Z,9.80
2023-05-14T03:21:41.204Z,9.48
2023-05-14T03:24:08.323Z,10.15
2023-05-14T03:26:35.429Z,11.25
2023-05-14T03:29:03.887Z,9.57
2023-05-14T03:31:31.475Z,10.40
2023-05-14T03:33:58.598Z,9.07
2023-05-14T03:36:25.702Z,9.85
2023-05-14T03:38:53.220Z,9.55
2023-05-14T03:41:21.789Z,9.77
2023-05-14T03:43:48.898Z,9.70
2023-05-14T03:46:16.095Z,9.73
2023-05-14T03:48:43.429Z,9.27
2023-05-14T03:51:10.614Z,10.13
2023-05-14T03:53:37.777Z,9.68
2023-05-14T03:56:05.062Z,9.43
2023-05-14T03:58:32.226Z,8.63
2023-05-14T04:01:00.666Z,8.73
2023-05-14T04:03:28.033Z,9.23
2023-05-14T04:05:55.648Z,10.15
2023-05-14T04:08:22.780Z,9.63
2023-05-14T04:10:50.487Z,9.63
2023-05-14T04:13:17.712Z,8.80
2023-05-14T04:15:45.574Z,9.70
2023-05-14T04:18:14.096Z,9.75
2023-05-14T04:20:41.290Z,8.60
2023-05-14T04:23:08.404Z,8.55
2023-05-14T04:25:35.559Z,9.95
2023-05-14T04:28:02.646Z,8.63
2023-05-14T04:30:29.846Z,8.98
2023-05-14T04:32:56.931Z,8.65
2023-05-14T04:35:25.116Z,8.82
2023-05-14T04:37:52.485Z,9.38
2023-05-14T04:40:19.838Z,8.75
2023-05-14T04:42:46.942Z,8.27
2023-05-14T04:45:14.517Z,8.32
2023-05-14T04:47:42.200Z,8.88
2023-05-14T04:50:09.937Z,9.10
2023-05-14T04:52:37.025Z,8.90
2023-05-14T04:55:04.243Z,8.27
2023-05-14T04:57:31.351Z,8.80
2023-05-14T04:59:58.465Z,8.15
2023-05-14T05:02:25.824Z,7.78
2023-05-14T05:04:52.916Z,8.00
2023-05-14T05:07:20.026Z,8.00
2023-05-14T05:09:47.119Z,7.80
2023-05-14T05:12:14.239Z,7.30
2023-05-14T05:14:41.313Z,8.05
2023-05-14T05:17:08.387Z,7.72
2023-05-14T05:19:43.160Z,7.40
2023-05-14T05:22:11.561Z,8.07
2023-05-14T05:24:38.640Z,7.93
2023-05-14T05:27:06.050Z,7.93
2023-05-14T05:29:33.171Z,8.30
2023-05-14T05:32:00.485Z,8.02
2023-05-14T05:34:27.790Z,7.20
2023-05-14T05:36:54.837Z,7.75
2023-05-14T05:39:21.929Z,8.57
2023-05-14T05:41:49.055Z,7.85
2023-05-14T05:44:16.179Z,7.90
2023-05-14T05:46:43.301Z,7.78
2023-05-14T05:49:10.403Z,7.43
2023-05-14T05:51:37.444Z,8.10
2023-05-14T05:54:04.580Z,8.23
2023-05-14T05:56:31.769Z,7.60
2023-05-14T05:58:58.926Z,8.00
2023-05-14T06:01:26.674Z,7.85
2023-05-14T06:03:53.877Z,7.47
2023-05-14T06:06:21.719Z,7.47
2023-05-14T06:08:49.072Z,7.93
2023-05-14T06:11:16.914Z,7.70
2023-05-14T06:13:44.070Z,8.05
2023-05-14T06:16:11.228Z,7.47
2023-05-14T06:18:38.414Z,7.18
2023-05-14T06:21:05.552Z,7.85
2023-05-14T06:23:34.157Z,7.38
2023-05-14T06:26:01.259Z,7.47
2023-05-14T06:28:28.444Z,7.43
2023-05-14T06:30:55.819Z,7.22
2023-05-14T06:33:29.761Z,7.07
2023-05-14T06:35:57.653Z,7.45
2023-05-14T06:38:25.049Z,7.80
2023-05-14T06:40:53.165Z,8.10
2023-05-14T06:43:20.745Z,6.90
2023-05-14T06:45:51.697Z,6.80
2023-05-14T06:48:19.318Z,6.95
2023-05-14T06:50:47.188Z,7.53
2023-05-14T06:53:14.476Z,6.75
2023-05-14T06:55:41.776Z,6.50
2023-05-14T06:58:09.346Z,7.13
2023-05-14T07:00:36.423Z,7.30
2023-05-14T07:03:03.594Z,7.00
2023-05-14T07:05:30.931Z,6.68
2023-05-14T07:07:58.143Z,7.00
2023-05-14T07:10:25.471Z,7.65
2023-05-14T07:12:52.811Z,7.50
2023-05-14T07:15:19.916Z,7.20
2023-05-14T07:17:47.029Z,7.10
2023-05-14T07:20:14.161Z,8.30
2023-05-14T07:22:41.310Z,7.88
2023-05-14T07:25:08.566Z,7.00
2023-05-14T07:27:35.651Z,7.45
2023-05-14T07:30:02.785Z,7.63
2023-05-14T07:32:29.908Z,7.93
2023-05-14T07:34:57.047Z,9.07
2023-05-14T07:37:25.876Z,8.93
2023-05-14T07:39:53.726Z,9.00
2023-05-14T07:42:34.604Z,9.50
2023-05-14T07:45:03.861Z,9.30
2023-05-14T07:47:31.147Z,8.52
2023-05-14T07:49:58.383Z,8.85
2023-05-14T07:52:25.763Z,8.50
2023-05-14T07:54:53.034Z,8.18
2023-05-14T07:57:20.667Z,8.90
2023-05-14T07:59:48.585Z,8.57
2023-05-14T08:02:16.588Z,8.35
2023-05-14T08:04:44.060Z,8.70
2023-05-14T08:07:11.394Z,8.95
2023-05-14T08:09:38.489Z,8.85
2023-05-14T08:12:06.012Z,8.40
2023-05-14T08:14:33.148Z,9.32
2023-05-14T08:17:00.288Z,9.07
2023-05-14T08:19:27.825Z,8.43
2023-05-14T08:21:55.097Z,8.13
2023-05-14T08:24:22.301Z,8.30
2023-05-14T08:26:49.410Z,8.48
2023-05-14T08:29:16.929Z,8.05
2023-05-14T08:31:44.207Z,7.35
2023-05-14T08:34:11.375Z,8.15
2023-05-14T08:36:39.185Z,7.35
2023-05-14T08:39:07.768Z,7.38
2023-05-14T08:41:35.265Z,7.45
2023-05-14T08:44:02.433Z,7.22
2023-05-14T08:46:31.077Z,7.47
2023-05-14T08:49:02.566Z,7.25
2023-05-14T08:51:29.791Z,8.32
2023-05-14T08:53:59.784Z,7.25
2023-05-14T08:56:27.353Z,8.10
2023-05-14T08:58:54.529Z,7.28
2023-05-14T09:01:22.081Z,7.60
2023-05-14T09:03:49.781Z,6.85
2023-05-14T09:06:17.612Z,7.13
2023-05-14T09:08:44.768Z,6.90
2023-05-14T09:11:11.953Z,7.18
2023-05-14T09:13:39.454Z,7.15
2023-05-14T09:16:06.787Z,6.88
2023-05-14T09:18:35.999Z,7.35
2023-05-14T09:21:03.257Z,6.90
2023-05-14T09:23:34.267Z,7.10
2023-05-14T09:26:04.878Z,7.10
2023-05-14T09:28:32.053Z,7.00
2023-05-14T09:30:59.157Z,7.05
2023-05-14T09:33:29.903Z,7.20
2023-05-14T09:36:00.778Z,7.30
2023-05-14T09:38:31.287Z,7.65
2023-05-14T09:41:01.594Z,6.93
2023-05-14T09:43:28.684Z,6.82
2023-05-14T09:45:55.931Z,6.88
2023-05-14T09:48:23.146Z,6.43
2023-05-14T09:50:51.559Z,6.72
2023-05-14T09:53:19.167Z,6.13
2023-05-14T09:55:46.479Z,6.40
2023-05-14T09:58:14.534Z,6.57
2023-05-14T10:00:45.169Z,6.20
2023-05-14T10:03:14.930Z,5.95
2023-05-14T10:05:42.980Z,5.78
2023-05-14T10:08:14.328Z,6.03
2023-05-14T10:10:41.452Z,6.68
2023-05-14T10:13:17.171Z,6.40
2023-05-14T10:15:49.389Z,5.82
2023-05-14T10:18:24.111Z,6.22
2023-05-14T10:21:04.442Z,6.32
2023-05-14T10:23:31.833Z,6.50
2023-05-14T10:25:59.288Z,6.07
2023-05-14T10:28:26.793Z,6.40
2023-05-14T10:30:54.821Z,6.10
2023-05-14T10:33:22.003Z,7.32
2023-05-14T10:35:52.334Z,6.00
2023-05-14T10:38:23.184Z,6.00
2023-05-14T10:40:53.544Z,6.22
2023-05-14T10:43:22.004Z,5.78
2023-05-14T10:45:49.232Z,5.97
2023-05-14T10:48:16.500Z,5.80
2023-05-14T10:50:44.016Z,5.70
2023-05-14T10:53:12.129Z,5.60
2023-05-14T10:55:39.414Z,5.65
2023-05-14T10:58:06.709Z,5.65
2023-05-14T11:00:34.396Z,5.30
2023-05-14T11:03:04.490Z,5.88
2023-05-14T11:05:31.851Z,6.13
2023-05-14T11:07:59.352Z,5.70
2023-05-14T11:10:30.094Z,5.85
2023-05-14T11:12:58.087Z,6.10
2023-05-14T11:15:26.201Z,6.72
2023-05-14T11:17:53.705Z,5.72
2023-05-14T11:20:21.751Z,5.65
2023-05-14T11:22:51.530Z,5.43
2023-05-14T11:25:18.908Z,5.68
2023-05-14T11:27:46.982Z,6.05
2023-05-14T11:30:14.243Z,5.95
2023-05-14T11:32:41.886Z,5.75
2023-05-14T11:35:09.251Z,6.18
2023-05-14T11:37:36.400Z,5.72
2023-05-14T11:40:08.969Z,6.50
2023-05-14T11:42:36.885Z,5.82
2023-05-14T11:45:04.223Z,6.18
2023-05-14T11:47:31.795Z,5.80
2023-05-14T11:50:00.716Z,5.70
2023-05-14T11:52:27.882Z,7.10
2023-05-14T11:54:55.128Z,5.80
2023-05-14T11:57:22.625Z,4.95
2023-05-14T11:59:50.371Z,5.35
2023-05-14T12:02:19.018Z,4.88
2023-05-14T12:04:51.598Z,5.25
2023-05-14T12:10:01.054Z,5.32
2023-05-14T12:12:28.129Z,5.20
2023-05-14T12:14:55.192Z,6.13
2023-05-14T12:17:23.505Z,5.82
2023-05-14T12:19:51.985Z,6.15
2023-05-14T12:22:20.911Z,6.97
2023-05-14T12:24:54.724Z,5.97
2023-05-14T12:27:28.666Z,5.90
2023-05-14T12:32:36.022Z,6.03
2023-05-14T12:35:03.461Z,6.05
2023-05-14T12:37:31.269Z,5.20
2023-05-14T12:39:58.519Z,5.88
2023-05-14T12:42:26.858Z,5.45
2023-05-14T12:44:53.940Z,5.75
2023-05-14T12:47:21.278Z,6.05
2023-05-14T12:49:48.440Z,6.00
2023-05-14T12:54:46.031Z,6.78
2023-05-14T12:57:13.270Z,5.70
2023-05-14T12:59:41.520Z,5.82
2023-05-14T13:02:08.924Z,6.10
2023-05-14T13:04:37.196Z,6.07
2023-05-14T13:07:04.371Z,6.70
2023-05-14T13:09:31.478Z,5.90
2023-05-14T13:11:58.807Z,6.68
2023-05-14T13:14:26.022Z,6.28
2023-05-14T13:16:53.167Z,5.78
2023-05-14T13:19:20.342Z,5.88
2023-05-14T13:21:47.380Z,5.80
2023-05-14T13:24:15.156Z,5.95
2023-05-14T13:26:44.429Z,5.88
2023-05-14T13:29:11.611Z,6.13
2023-05-14T13:31:38.670Z,5.35
2023-05-14T13:34:05.865Z,6.10
2023-05-14T13:36:32.997Z,5.47
2023-05-14T13:39:00.110Z,6.10
2023-05-14T13:41:27.217Z,5.78
2023-05-14T13:43:54.261Z,5.38
2023-05-14T13:46:21.429Z,5.55
2023-05-14T13:48:48.575Z,5.20
2023-05-14T13:51:15.688Z,5.63
2023-05-14T13:53:42.739Z,5.70
2023-05-14T13:56:09.891Z,5.50
2023-05-14T13:58:36.992Z,5.78
2023-05-14T14:01:04.157Z,5.70
2023-05-14T14:03:31.301Z,5.53
2023-05-14T14:05:58.359Z,5.28
2023-05-14T14:08:25.547Z,5.22
2023-05-14T14:10:55.072Z,4.85
2023-05-14T14:13:22.707Z,5.35
2023-05-14T14:15:50.217Z,4.63
2023-05-14T14:18:17.433Z,4.50
2023-05-14T14:20:44.557Z,4.30
2023-05-14T14:23:11.684Z,5.07
2023-05-14T14:25:38.845Z,4.55
2023-05-14T14:28:06.009Z,5.32
2023-05-14T14:30:33.141Z,4.90
2023-05-14T14:33:01.320Z,4.55
2023-05-14T14:35:28.677Z,5.68
2023-05-14T14:37:55.846Z,4.80
2023-05-14T14:40:23.879Z,4.80
2023-05-14T14:42:51.134Z,4.95
2023-05-14T14:45:18.528Z,4.85
2023-05-14T14:47:46.369Z,5.07
2023-05-14T14:50:13.716Z,5.75
2023-05-14T14:52:45.449Z,5.55
2023-05-14T14:55:13.232Z,5.78
2023-05-14T14:57:40.342Z,5.57
2023-05-14T15:00:07.772Z,5.85
2023-05-14T15:02:35.383Z,5.63
2023-05-14T15:05:02.616Z,5.32
2023-05-14T15:07:32.811Z,4.88
2023-05-14T15:10:00.348Z,5.35
2023-05-14T15:12:27.507Z,5.07
2023-05-14T15:14:54.675Z,5.20
2023-05-14T15:17:21.729Z,4.95
2023-05-14T15:19:48.866Z,5.50
2023-05-14T15:22:15.993Z,5.63
2023-05-14T15:24:43.129Z,5.35
2023-05-14T15:27:10.274Z,5.25
2023-05-14T15:29:37.395Z,5.88
2023-05-14T15:32:04.682Z,5.53
2023-05-14T15:34:31.855Z,5.43
2023-05-14T15:36:58.953Z,6.30
2023-05-14T15:39:26.302Z,5.30
2023-05-14T15:41:54.018Z,6.03
2023-05-14T15:44:21.095Z,5.63
2023-05-14T15:46:48.248Z,6.07
2023-05-14T15:49:15.432Z,5.72
2023-05-14T15:51:42.504Z,6.10
2023-05-14T15:54:09.553Z,5.72
2023-05-14T15:56:36.701Z,6.25
2023-05-14T15:59:03.833Z,5.88
2023-05-14T16:01:31.014Z,5.47
2023-05-14T16:03:58.185Z,6.13
2023-05-14T16:06:25.752Z,6.53
2023-05-14T16:08:52.835Z,5.80
2023-05-14T16:11:19.989Z,6.43
2023-05-14T16:13:47.116Z,6.03
2023-05-14T16:16:14.288Z,5.47
2023-05-14T16:18:42.666Z,5.72
2023-05-14T16:21:09.745Z,5.25
2023-05-14T16:23:36.880Z,6.30
2023-05-14T16:26:04.041Z,5.40
2023-05-14T16:28:31.175Z,5.50
2023-05-14T16:30:58.295Z,5.97
2023-05-14T16:33:25.465Z,5.32
2023-05-14T16:35:52.614Z,5.53
2023-05-14T16:38:19.693Z,5.10
2023-05-14T16:40:46.775Z,5.65
2023-05-14T16:43:13.836Z,5.55
2023-05-14T16:45:41.510Z,5.43
2023-05-14T16:48:08.718Z,5.72
2023-05-14T16:50:35.908Z,5.93
2023-05-14T16:53:03.053Z,5.25
2023-05-14T16:55:30.324Z,5.45
2023-05-14T16:57:57.449Z,5.97
2023-05-14T17:00:24.577Z,5.65
2023-05-14T17:02:54.004Z,5.05
2023-05-14T17:05:21.744Z,6.15
2023-05-14T17:07:49.071Z,5.72
2023-05-14T17:10:16.224Z,6.07
2023-05-14T17:12:43.477Z,6.82
2023-05-14T17:15:10.784Z,7.43
2023-05-14T17:17:38.140Z,6.65
2023-05-14T17:22:33.055Z,6.85
2023-05-14T17:25:00.509Z,6.63
2023-05-14T17:27:29.215Z,7.28
2023-05-14T17:29:56.328Z,7.28
2023-05-14T17:32:23.511Z,7.43
2023-05-14T17:34:50.714Z,6.82
2023-05-14T17:37:17.988Z,6.53
2023-05-14T17:39:45.147Z,6.75
2023-05-14T17:42:12.381Z,7.05
2023-05-14T17:44:39.508Z,6.90
2023-05-14T17:47:07.988Z,7.10
2023-05-14T17:49:35.545Z,7.60
2023-05-14T17:52:03.051Z,6.55
2023-05-14T17:54:30.704Z,6.90
2023-05-14T17:56:57.895Z,8.00
2023-05-14T17:59:25.004Z,6.55
2023-05-14T18:01:52.217Z,6.40
2023-05-14T18:04:19.875Z,6.50
2023-05-14T18:06:47.057Z,6.22
2023-05-14T18:09:14.417Z,6.65
2023-05-14T18:11:41.543Z,6.75
2023-05-14T18:14:08.702Z,6.25
2023-05-14T18:16:37.073Z,6.13
2023-05-14T18:19:04.234Z,6.82
2023-05-14T18:21:31.530Z,6.20
2023-05-14T18:23:58.671Z,6.80
2023-05-14T18:26:26.615Z,6.97
2023-05-14T18:28:53.704Z,6.70
2023-05-14T18:31:20.847Z,6.00
2023-05-14T18:33:48.003Z,6.00
2023-05-14T18:36:15.110Z,6.45
2023-05-14T18:38:42.211Z,6.22
2023-05-14T18:41:09.356Z,5.75
2023-05-14T18:43:36.505Z,6.15
2023-05-14T18:46:03.681Z,5.70
2023-05-14T18:48:31.623Z,5.60
2023-05-14T18:50:58.692Z,5.80
2023-05-14T18:53:26.080Z,5.78
2023-05-14T18:55:53.253Z,6.18
2023-05-14T18:58:20.432Z,6.47
2023-05-14T19:00:47.631Z,6.50
2023-05-14T19:03:15.126Z,7.07
2023-05-14T19:05:42.352Z,7.03
2023-05-14T19:08:09.502Z,7.18
2023-05-14T19:10:36.643Z,6.97
2023-05-14T19:13:03.783Z,6.88
2023-05-14T19:15:30.999Z,7.45
2023-05-14T19:17:58.098Z,6.88
2023-05-14T19:20:25.477Z,6.90
2023-05-14T19:22:52.638Z,6.47
2023-05-14T19:25:19.707Z,6.68
2023-05-14T19:27:50.916Z,6.88
2023-05-14T19:30:18.351Z,7.50
2023-05-14T19:32:45.592Z,6.75
2023-05-14T19:35:12.891Z,6.32
2023-05-14T19:37:39.942Z,6.15
2023-05-14T19:40:07.443Z,5.65
2023-05-14T19:42:34.556Z,5.72
2023-05-14T19:45:01.649Z,6.35
2023-05-14T19:47:28.859Z,6.13
2023-05-14T19:49:56.001Z,5.90
2023-05-14T19:52:23.089Z,6.28
2023-05-14T19:54:50.236Z,6.07
2023-05-14T19:57:17.313Z,5.60
2023-05-14T19:59:44.471Z,6.25
2023-05-14T20:02:18.171Z,6.07
2023-05-14T20:04:46.166Z,6.03
2023-05-14T20:07:17.176Z,5.70
2023-05-14T20:09:44.297Z,6.43
2023-05-14T20:12:12.860Z,6.57
2023-05-14T20:14:40.945Z,6.10
2023-05-14T20:17:08.265Z,6.63
2023-05-14T20:19:35.606Z,6.30
2023-05-14T20:22:02.828Z,5.95
2023-05-14T20:24:29.946Z,5.97
2023-05-14T20:26:57.918Z,6.80
2023-05-14T20:29:25.011Z,6.47
2023-05-14T20:31:52.282Z,6.63
2023-05-14T20:34:19.414Z,5.72
2023-05-14T20:36:46.460Z,6.20
2023-05-14T20:39:14.572Z,5.65
2023-05-14T20:41:41.730Z,5.72
2023-05-14T20:44:08.793Z,6.15
2023-05-14T20:46:35.919Z,5.72
2023-05-14T20:49:03.073Z,6.03
2023-05-14T20:51:30.373Z,5.38
2023-05-14T20:53:57.501Z,5.47
2023-05-14T20:56:24.642Z,5.40
2023-05-14T20:58:51.783Z,5.32
2023-05-14T21:01:19.347Z,5.75
2023-05-14T21:03:46.692Z,5.80
2023-05-14T21:06:13.906Z,5.88
2023-05-14T21:08:41.044Z,5.38
2023-05-14T21:11:08.892Z,5.88
2023-05-14T21:13:36.006Z,5.90
2023-05-14T21:16:03.222Z,5.70
2023-05-14T21:18:32.662Z,5.43
2023-05-14T21:20:59.869Z,5.70
2023-05-14T21:23:26.945Z,5.80
2023-05-14T21:25:54.810Z,5.70
2023-05-14T21:28:22.217Z,6.70
2023-05-14T21:30:50.550Z,5.70
2023-05-14T21:33:17.632Z,6.18
2023-05-14T21:35:44.713Z,6.13
2023-05-14T21:38:11.974Z,6.35
2023-05-14T21:40:39.128Z,6.38
2023-05-14T21:43:06.184Z,6.28
2023-05-14T21:45:33.381Z,6.07
2023-05-14T21:48:00.683Z,6.40
2023-05-14T21:50:27.924Z,6.28
2023-05-14T21:52:55.193Z,6.70
2023-05-14T21:55:22.818Z,6.60
2023-05-14T21:57:50.824Z,6.82
2023-05-14T22:00:23.476Z,7.03
2023-05-14T22:05:18.065Z,6.60
2023-05-14T22:07:45.314Z,6.90
2023-05-14T22:10:15.951Z,7.55
2023-05-14T22:12:43.712Z,7.20
2023-05-14T22:15:11.491Z,7.60
2023-05-14T22:17:38.867Z,7.18
2023-05-14T22:20:06.903Z,7.22
2023-05-14T22:22:34.246Z,7.55
2023-05-14T22:25:01.349Z,7.25
2023-05-14T22:27:28.532Z,7.93
2023-05-14T22:29:55.620Z,7.35
2023-05-14T22:32:22.988Z,7.88
2023-05-14T22:34:50.282Z,7.00
2023-05-14T22:37:17.485Z,7.65
2023-05-14T22:39:44.822Z,8.30
2023-05-14T22:42:11.932Z,7.68
2023-05-14T22:44:39.016Z,7.88
2023-05-14T22:47:06.191Z,7.68
2023-05-14T22:49:33.309Z,6.85
2023-05-14T22:52:00.462Z,6.95
2023-05-14T22:54:27.563Z,7.22
2023-05-14T22:56:54.762Z,7.72
2023-05-14T22:59:23.604Z,7.70
2023-05-14T23:01:51.211Z,7.32
2023-05-14T23:04:18.449Z,6.70
2023-05-14T23:06:45.647Z,7.10
2023-05-14T23:09:12.738Z,7.32
2023-05-14T23:11:39.858Z,6.70
2023-05-14T23:14:06.917Z,7.32
2023-05-14T23:16:34.062Z,8.15
2023-05-14T23:19:01.360Z,7.97
2023-05-14T23:21:28.544Z,8.18
2023-05-14T23:23:55.609Z,7.70
2023-05-14T23:26:22.739Z,8.27
2023-05-14T23:28:51.052Z,8.00
2023-05-14T23:31:18.186Z,8.75
2023-05-14T23:33:46.259Z,8.48
2023-05-14T23:36:13.433Z,8.95
2023-05-14T23:38:40.749Z,8.73
2023-05-14T23:41:07.865Z,9.15
2023-05-14T23:43:35.011Z,9.00
2023-05-14T23:46:02.617Z,9.15
2023-05-14T23:48:29.870Z,9.15
2023-05-14T23:50:57.002Z,10.02
2023-05-14T23:53:24.134Z,9.38
2023-05-14T23:55:51.369Z,9.65
2023-05-14T23:58:18.434Z,9.95
